createdAt,value
2018-11-20T00:00:25.237Z,87.89
2018-11-20T00:03:14.328Z,87.89
2018-11-20T00:06:17.005Z,88.13
2018-11-20T00:09:12.702Z,88.25
2018-11-20T00:12:05.203Z,87.35
2018-11-20T00:15:06.733Z,87.32
2018-11-20T00:17:47.809Z,87.60
2018-11-20T00:20:49.395Z,86.95
2018-11-20T00:23:33.530Z,86.62
2018-11-20T00:26:32.429Z,86.00
2018-11-20T00:29:12.664Z,86.56
2018-11-20T00:32:02.221Z,86.83
2018-11-20T00:34:57.527Z,86.75
2018-11-20T00:37:47.041Z,85.93
2018-11-20T00:40:42.560Z,86.44
2018-11-20T00:43:40.257Z,86.22
2018-11-20T00:46:39.031Z,86.29
2018-11-20T00:49:27.769Z,86.53
2018-11-20T00:52:30.105Z,86.40
2018-11-20T00:55:34.792Z,86.13
2018-11-20T00:58:23.129Z,86.79
2018-11-20T01:01:22.853Z,86.71
2018-11-20T01:04:14.223Z,86.44
2018-11-20T01:07:00.179Z,87.58
2018-11-20T01:09:47.430Z,88.08
2018-11-20T01:12:42.633Z,87.89
2018-11-20T01:15:35.078Z,87.65
2018-11-20T01:18:23.417Z,86.90
2018-11-20T01:21:11.415Z,86.90
2018-11-20T01:24:00.588Z,87.28
2018-11-20T01:26:44.682Z,86.20
2018-11-20T01:29:36.690Z,86.20
2018-11-20T01:32:32.138Z,87.51
2018-11-20T01:35:28.362Z,87.39
2018-11-20T01:38:22.615Z,86.99
2018-11-20T01:41:03.352Z,86.83
2018-11-20T01:43:51.050Z,86.52
2018-11-20T01:46:30.934Z,87.30
2018-11-20T01:49:11.127Z,87.58
2018-11-20T01:51:53.603Z,87.75
2018-11-20T01:54:39.115Z,87.72
2018-11-20T01:57:27.452Z,87.72
2018-11-20T02:00:14.093Z,87.81
2018-11-20T02:03:13.265Z,87.98
2018-11-20T02:06:01.355Z,88.04
2018-11-20T02:09:00.885Z,88.01
2018-11-20T02:12:03.741Z,87.53
2018-11-20T02:15:00.001Z,87.58
2018-11-20T02:18:04.998Z,85.58
2018-11-20T02:20:56.556Z,85.58
2018-11-20T02:23:35.966Z,85.73
2018-11-20T02:26:17.905Z,86.73
2018-11-20T02:29:10.256Z,87.21
2018-11-20T02:32:11.944Z,86.67
2018-11-20T02:35:16.485Z,86.08
2018-11-20T02:38:06.029Z,84.94
2018-11-20T02:40:54.411Z,84.88
2018-11-20T02:43:43.134Z,84.81
2018-11-20T02:46:42.026Z,85.69
2018-11-20T02:49:30.179Z,83.63
2018-11-20T02:52:37.877Z,84.46
2018-11-20T02:55:30.328Z,84.39
2018-11-20T02:58:29.632Z,84.50
2018-11-20T03:01:10.462Z,84.27
2018-11-20T03:04:06.161Z,84.03
2018-11-20T03:07:05.674Z,84.34
2018-11-20T03:10:04.516Z,84.34
2018-11-20T03:12:59.714Z,84.34
2018-11-20T03:16:04.123Z,85.94
2018-11-20T03:18:45.826Z,85.94
2018-11-20T03:21:35.444Z,85.61
2018-11-20T03:24:23.277Z,85.08
2018-11-20T03:27:28.856Z,85.76
2018-11-20T03:30:56.240Z,85.25
2018-11-20T03:33:46.456Z,85.74
2018-11-20T03:36:46.615Z,86.59
2018-11-20T03:39:48.430Z,87.10
2018-11-20T03:42:25.607Z,86.93
2018-11-20T03:45:23.970Z,87.39
2018-11-20T03:48:12.085Z,87.28
2018-11-20T03:51:04.330Z,87.36
2018-11-20T03:53:56.257Z,87.55
2018-11-20T03:56:45.555Z,87.18
2018-11-20T03:59:36.377Z,87.18
2018-11-20T04:02:44.358Z,86.92
2018-11-20T04:05:42.946Z,86.55
2018-11-20T04:08:33.047Z,86.35
2018-11-20T04:11:45.714Z,86.74
2018-11-20T04:14:34.236Z,87.01
2018-11-20T04:17:27.987Z,87.01
2018-11-20T04:20:16.740Z,87.49
2018-11-20T04:23:04.707Z,87.91
2018-11-20T04:25:54.023Z,88.58
2018-11-20T04:28:46.519Z,88.33
2018-11-20T04:32:02.530Z,88.69
2018-11-20T04:35:01.060Z,87.94
2018-11-20T04:37:49.225Z,88.33
2018-11-20T04:40:50.882Z,87.94
2018-11-20T04:43:39.140Z,87.58
2018-11-20T04:46:29.357Z,87.53
2018-11-20T04:49:19.843Z,87.84
2018-11-20T04:52:02.278Z,87.94
2018-11-20T04:54:54.643Z,87.77
2018-11-20T04:57:42.933Z,87.99
2018-11-20T05:00:26.190Z,87.42
2018-11-20T05:03:05.809Z,87.86
2018-11-20T05:05:54.265Z,88.23
2018-11-20T05:08:43.553Z,88.37
2018-11-20T05:11:35.969Z,88.43
2018-11-20T05:14:35.565Z,87.79
2018-11-20T05:17:27.754Z,87.81
2018-11-20T05:20:18.208Z,86.96
2018-11-20T05:23:12.366Z,86.38
2018-11-20T05:26:20.008Z,87.13
2018-11-20T05:29:08.162Z,87.13
2018-11-20T05:32:01.545Z,87.32
2018-11-20T05:34:50.081Z,86.69
2018-11-20T05:37:46.762Z,86.69
2018-11-20T05:40:45.175Z,87.10
2018-11-20T05:43:34.350Z,87.62
2018-11-20T05:46:31.309Z,88.88
2018-11-20T05:49:19.737Z,88.88
2018-11-20T05:52:19.530Z,88.52
2018-11-20T05:54:58.688Z,88.55
2018-11-20T05:57:47.214Z,88.37
2018-11-20T06:00:36.659Z,88.74
2018-11-20T06:03:25.407Z,88.78
2018-11-20T06:06:12.911Z,89.01
2018-11-20T06:09:17.566Z,88.91
2018-11-20T06:12:25.104Z,87.49
2018-11-20T06:15:20.723Z,87.75
2018-11-20T06:18:25.341Z,88.52
2018-11-20T06:21:13.089Z,88.82
2018-11-20T06:24:02.683Z,88.82
2018-11-20T06:27:07.132Z,89.08
2018-11-20T06:29:56.761Z,89.22
2018-11-20T06:32:55.258Z,88.64
2018-11-20T06:35:54.821Z,88.79
2018-11-20T06:38:50.010Z,88.79
2018-11-20T06:41:40.580Z,88.61
2018-11-20T06:44:30.165Z,88.61
2018-11-20T06:47:18.208Z,88.62
2018-11-20T06:50:07.564Z,88.63
2018-11-20T06:53:13.093Z,88.73
2018-11-20T06:56:09.141Z,88.51
2018-11-20T06:59:07.590Z,88.06
2018-11-20T07:02:06.206Z,87.80
2018-11-20T07:05:01.463Z,94.36
2018-11-20T07:07:55.559Z,91.81
2018-11-20T07:10:50.830Z,90.14
2018-11-20T07:13:57.659Z,87.58
2018-11-20T07:16:50.649Z,86.45
2018-11-20T07:19:45.349Z,85.36
2018-11-20T07:22:50.862Z,83.79
2018-11-20T07:25:55.538Z,82.63
2018-11-20T07:28:40.332Z,81.92
2018-11-20T07:31:33.244Z,81.09
2018-11-20T07:34:25.858Z,81.39
2018-11-20T07:37:23.607Z,81.79
2018-11-20T07:40:18.799Z,82.36
2018-11-20T07:43:15.272Z,82.77
2018-11-20T07:46:16.868Z,83.12
2018-11-20T07:49:09.105Z,83.10
2018-11-20T07:52:01.663Z,83.66
2018-11-20T07:54:46.223Z,83.82
2018-11-20T07:57:49.289Z,84.02
2018-11-20T08:00:36.533Z,84.07
2018-11-20T08:03:35.065Z,84.09
2018-11-20T08:06:23.279Z,84.45
2018-11-20T08:09:12.808Z,84.93
2018-11-20T08:11:56.663Z,85.22
2018-11-20T08:14:44.726Z,85.14
2018-11-20T08:17:37.714Z,84.90
2018-11-20T08:20:30.703Z,84.80
2018-11-20T08:23:19.137Z,84.54
2018-11-20T08:26:11.959Z,84.63
2018-11-20T08:29:00.902Z,84.51
2018-11-20T08:32:02.364Z,84.48
2018-11-20T08:35:04.047Z,84.33
2018-11-20T08:37:59.332Z,89.29
2018-11-20T08:41:07.228Z,86.60
2018-11-20T08:44:08.677Z,84.59
2018-11-20T08:46:53.298Z,83.83
2018-11-20T08:49:41.430Z,83.83
2018-11-20T08:52:29.784Z,84.10
2018-11-20T08:55:17.754Z,84.37
2018-11-20T08:58:05.906Z,84.36
2018-11-20T09:01:01.359Z,84.45
2018-11-20T09:04:03.033Z,84.41
2018-11-20T09:06:47.083Z,84.46
2018-11-20T09:09:36.528Z,84.52
2018-11-20T09:12:38.858Z,84.46
2018-11-20T09:15:27.031Z,84.74
2018-11-20T09:18:10.908Z,84.58
2018-11-20T09:20:59.070Z,84.61
2018-11-20T09:24:06.602Z,84.49
2018-11-20T09:26:54.649Z,84.33
2018-11-20T09:29:43.651Z,84.34
2018-11-20T09:32:45.962Z,84.11
2018-11-20T09:35:33.979Z,84.01
2018-11-20T09:38:21.979Z,83.94
2018-11-20T09:41:20.285Z,85.24
2018-11-20T09:44:18.675Z,87.08
2018-11-20T09:47:17.603Z,84.24
2018-11-20T09:50:15.850Z,81.72
2018-11-20T09:53:20.733Z,81.60
2018-11-20T09:56:14.792Z,80.79
2018-11-20T09:59:13.592Z,79.86
2018-11-20T10:02:00.419Z,78.92
2018-11-20T10:04:49.930Z,77.67
2018-11-20T10:07:40.250Z,77.11
2018-11-20T10:10:29.736Z,76.89
2018-11-20T10:13:19.321Z,76.41
2018-11-20T10:16:11.743Z,76.51
2018-11-20T10:19:00.023Z,76.33
2018-11-20T10:22:03.485Z,77.23
2018-11-20T10:24:51.735Z,77.58
2018-11-20T10:27:39.852Z,77.58
2018-11-20T10:30:32.493Z,77.31
2018-11-20T10:33:39.948Z,76.85
2018-11-20T10:36:32.466Z,76.12
2018-11-20T10:39:32.003Z,75.87
2018-11-20T10:42:21.551Z,75.13
2018-11-20T10:45:15.877Z,76.37
2018-11-20T10:48:04.910Z,76.83
2018-11-20T10:50:53.710Z,76.86
2018-11-20T10:53:38.143Z,76.95
2018-11-20T10:56:21.426Z,75.99
2018-11-20T10:59:16.399Z,76.71
2018-11-20T11:02:24.624Z,76.85
2018-11-20T11:05:14.871Z,77.04
2018-11-20T11:08:03.298Z,82.87
2018-11-20T11:11:03.910Z,80.40
2018-11-20T11:13:52.626Z,77.54
2018-11-20T11:16:41.043Z,76.87
2018-11-20T11:19:33.261Z,75.92
2018-11-20T11:22:23.531Z,75.79
2018-11-20T11:25:09.741Z,76.29
2018-11-20T11:28:08.136Z,76.64
2018-11-20T11:30:57.622Z,76.55
2018-11-20T11:33:45.760Z,76.86
2018-11-20T11:36:35.919Z,77.08
2018-11-20T11:39:30.750Z,77.14
2018-11-20T11:42:19.880Z,76.80
2018-11-20T11:45:13.360Z,76.44
2018-11-20T11:48:13.086Z,76.48
2018-11-20T11:51:06.344Z,76.75
2018-11-20T11:54:14.289Z,77.21
2018-11-20T11:56:58.967Z,77.32
2018-11-20T12:00:02.614Z,77.92
2018-11-20T12:05:55.979Z,77.99
2018-11-20T12:08:39.385Z,77.71
2018-11-20T12:11:28.510Z,78.44
2018-11-20T12:14:16.584Z,78.53
2018-11-20T12:17:12.705Z,78.87
2018-11-20T12:20:01.101Z,79.19
2018-11-20T12:22:42.392Z,79.39
2018-11-20T12:25:23.884Z,79.83
2018-11-20T12:28:25.604Z,80.11
2018-11-20T12:31:33.574Z,80.08
2018-11-20T12:34:41.153Z,79.79
2018-11-20T12:37:31.112Z,80.07
2018-11-20T12:40:32.868Z,80.17
2018-11-20T12:43:19.149Z,79.91
2018-11-20T12:46:16.406Z,80.16
2018-11-20T12:49:12.415Z,80.08
2018-11-20T12:52:16.559Z,80.40
2018-11-20T12:54:56.910Z,80.66
2018-11-20T12:57:44.794Z,80.24
2018-11-20T13:00:31.165Z,80.71
2018-11-20T13:03:36.046Z,80.75
2018-11-20T13:06:28.600Z,81.70
2018-11-20T13:09:12.021Z,83.84
2018-11-20T13:12:07.277Z,84.03
2018-11-20T13:14:56.787Z,83.23
2018-11-20T13:17:45.201Z,82.33
2018-11-20T13:20:33.335Z,82.22
2018-11-20T13:23:21.607Z,82.34
2018-11-20T13:26:17.526Z,82.58
2018-11-20T13:29:16.334Z,81.81
2018-11-20T13:32:05.311Z,80.23
2018-11-20T13:35:00.961Z,79.18
2018-11-20T13:37:53.227Z,78.90
2018-11-20T13:41:21.250Z,79.09
2018-11-20T13:44:05.385Z,79.44
2018-11-20T13:46:58.300Z,79.42
2018-11-20T13:49:53.742Z,80.28
2018-11-20T13:52:43.308Z,80.18
2018-11-20T13:55:33.902Z,80.68
2018-11-20T13:58:42.130Z,81.10
2018-11-20T14:01:30.538Z,81.61
2018-11-20T14:04:18.667Z,81.77
2018-11-20T14:07:06.867Z,81.88
2018-11-20T14:09:56.232Z,82.18
2018-11-20T14:12:44.388Z,82.63
2018-11-20T14:15:32.853Z,82.58
2018-11-20T14:18:31.162Z,82.75
2018-11-20T14:21:19.613Z,83.08
2018-11-20T14:24:07.940Z,83.03
2018-11-20T14:27:05.347Z,83.16
2018-11-20T14:30:04.173Z,83.38
2018-11-20T14:33:12.130Z,88.71
2018-11-20T14:36:00.111Z,86.27
2018-11-20T14:38:48.328Z,84.46
2018-11-20T14:41:38.828Z,83.81
2018-11-20T14:44:23.398Z,83.66
2018-11-20T14:47:21.708Z,83.62
2018-11-20T14:50:10.735Z,83.68
2018-11-20T14:52:54.380Z,83.81
2018-11-20T14:55:44.282Z,84.06
2018-11-20T14:58:37.021Z,84.16
2018-11-20T15:01:35.618Z,84.22
2018-11-20T15:04:21.861Z,84.61
2018-11-20T15:07:14.109Z,84.81
2018-11-20T15:09:56.327Z,84.82
2018-11-20T15:12:58.518Z,84.78
2018-11-20T15:15:53.845Z,84.75
2018-11-20T15:18:46.367Z,85.15
2018-11-20T15:21:50.928Z,85.42
2018-11-20T15:24:48.449Z,85.61
2018-11-20T15:27:31.220Z,85.55
2018-11-20T15:30:19.521Z,85.59
2018-11-20T15:33:03.303Z,85.63
2018-11-20T15:35:52.935Z,85.73
2018-11-20T15:38:52.369Z,85.68
2018-11-20T15:41:34.138Z,85.89
2018-11-20T15:44:32.821Z,85.99
2018-11-20T15:47:22.309Z,86.01
2018-11-20T15:50:10.173Z,86.06
2018-11-20T15:53:07.054Z,86.04
2018-11-20T15:56:02.309Z,85.95
2018-11-20T15:59:00.775Z,84.98
2018-11-20T16:02:00.140Z,84.95
2018-11-20T16:04:48.347Z,84.78
2018-11-20T16:07:40.349Z,84.30
2018-11-20T16:10:43.530Z,84.71
2018-11-20T16:13:36.129Z,84.70
2018-11-20T16:16:25.800Z,86.31
2018-11-20T16:19:13.540Z,87.57
2018-11-20T16:22:17.301Z,85.84
2018-11-20T16:25:08.210Z,85.45
2018-11-20T16:28:02.207Z,85.64
2018-11-20T16:30:50.966Z,85.63
2018-11-20T16:33:51.164Z,85.83
2018-11-20T16:36:39.444Z,85.85
2018-11-20T16:39:35.366Z,85.99
2018-11-20T16:42:23.581Z,86.06
2018-11-20T16:45:22.406Z,85.91
2018-11-20T16:48:23.768Z,86.37
2018-11-20T16:51:11.891Z,87.09
2018-11-20T16:54:01.461Z,87.54
2018-11-20T16:56:56.770Z,87.45
2018-11-20T17:00:01.434Z,87.30
2018-11-20T17:02:59.620Z,87.21
2018-11-20T17:05:47.820Z,87.42
2018-11-20T17:08:43.205Z,87.49
2018-11-20T17:11:41.973Z,87.71
2018-11-20T17:14:31.502Z,87.52
2018-11-20T17:17:19.767Z,87.65
2018-11-20T17:20:18.457Z,88.83
2018-11-20T17:23:19.819Z,88.43
2018-11-20T17:26:11.883Z,88.18
2018-11-20T17:28:59.932Z,88.01
2018-11-20T17:32:00.920Z,87.89
2018-11-20T17:34:59.320Z,87.71
2018-11-20T17:38:04.358Z,87.89
2018-11-20T17:41:05.985Z,87.87
2018-11-20T17:43:55.565Z,87.85
2018-11-20T17:46:50.379Z,87.83
2018-11-20T17:49:38.702Z,88.48
2018-11-20T17:52:29.098Z,88.72
2018-11-20T17:55:17.296Z,88.74
2018-11-20T17:58:09.814Z,88.69
2018-11-20T18:01:17.747Z,88.81
2018-11-20T18:04:05.707Z,88.46
2018-11-20T18:06:47.245Z,88.37
2018-11-20T18:09:35.215Z,88.28
2018-11-20T18:12:23.129Z,88.34
2018-11-20T18:15:31.760Z,88.21
2018-11-20T18:18:24.180Z,88.11
2018-11-20T18:21:16.628Z,88.09
2018-11-20T18:24:24.443Z,88.08
2018-11-20T18:27:20.023Z,88.12
2018-11-20T18:30:22.315Z,87.99
2018-11-20T18:33:26.899Z,88.03
2018-11-20T18:36:28.605Z,87.88
2018-11-20T18:39:16.871Z,87.95
2018-11-20T18:42:05.099Z,87.93
2018-11-20T18:44:53.038Z,87.97
2018-11-20T18:47:53.995Z,87.97
2018-11-20T18:50:49.265Z,87.91
2018-11-20T18:53:32.526Z,87.97
2018-11-20T18:56:40.195Z,88.03
2018-11-20T18:59:35.418Z,88.13
2018-11-20T19:02:25.256Z,87.98
2018-11-20T19:05:17.755Z,93.47
2018-11-20T19:08:07.303Z,91.65
2018-11-20T19:10:55.687Z,89.36
2018-11-20T19:14:01.162Z,88.30
2018-11-20T19:16:53.380Z,87.62
2018-11-20T19:19:46.881Z,87.56
2018-11-20T19:22:35.051Z,87.29
2018-11-20T19:25:30.427Z,87.00
2018-11-20T19:28:20.081Z,86.39
2018-11-20T19:31:08.927Z,87.43
2018-11-20T19:34:05.129Z,87.95
2018-11-20T19:36:54.056Z,88.06
2018-11-20T19:39:44.455Z,88.09
2018-11-20T19:42:33.570Z,88.08
2018-11-20T19:45:23.132Z,88.01
2018-11-20T19:48:14.007Z,87.91
2018-11-20T19:51:41.987Z,87.72
2018-11-20T19:54:30.646Z,87.65
2018-11-20T19:57:22.046Z,87.53
2018-11-20T20:00:17.127Z,87.46
2018-11-20T20:03:04.854Z,87.52
2018-11-20T20:06:04.514Z,87.57
2018-11-20T20:08:51.901Z,87.51
2018-11-20T20:11:43.406Z,87.61
2018-11-20T20:14:22.842Z,87.63
2018-11-20T20:17:19.219Z,87.56
2018-11-20T20:20:06.518Z,87.61
2018-11-20T20:23:13.582Z,87.54
2018-11-20T20:26:01.077Z,87.55
2018-11-20T20:28:52.487Z,87.68
2018-11-20T20:31:40.930Z,87.52
2018-11-20T20:34:28.339Z,87.75
2018-11-20T20:37:17.858Z,87.63
2018-11-20T20:40:19.524Z,87.65
2018-11-20T20:43:07.184Z,87.53
2018-11-20T20:45:54.623Z,87.68
2018-11-20T20:48:58.509Z,87.79
2018-11-20T20:51:50.217Z,87.81
2018-11-20T20:54:38.027Z,87.90
2018-11-20T20:57:42.634Z,87.94
2018-11-20T21:00:31.170Z,87.98
2018-11-20T21:03:35.052Z,88.10
2018-11-20T21:06:32.162Z,88.44
2018-11-20T21:09:19.340Z,88.57
2018-11-20T21:12:23.435Z,88.59
2018-11-20T21:15:12.137Z,88.56
2018-11-20T21:18:06.951Z,88.42
2018-11-20T21:21:15.581Z,88.42
2018-11-20T21:24:08.500Z,88.54
2018-11-20T21:26:54.965Z,88.50
2018-11-20T21:29:49.951Z,88.48
2018-11-20T21:32:32.815Z,88.46
2018-11-20T21:35:15.185Z,88.54
2018-11-20T21:38:00.589Z,88.61
2018-11-20T21:40:48.137Z,88.70
2018-11-20T21:43:43.419Z,88.71
2018-11-20T21:46:35.239Z,88.69
2018-11-20T21:49:30.155Z,88.85
2018-11-20T21:52:17.435Z,88.54
2018-11-20T21:55:15.543Z,88.32
2018-11-20T21:58:13.413Z,88.24
2018-11-20T22:01:26.248Z,88.09
2018-11-20T22:04:14.247Z,88.19
2018-11-20T22:07:11.943Z,88.20
2018-11-20T22:10:19.390Z,88.16
2018-11-20T22:13:06.638Z,88.03
2018-11-20T22:15:54.317Z,88.06
2018-11-20T22:18:41.675Z,87.97
2018-11-20T22:21:35.192Z,88.18
2018-11-20T22:24:28.335Z,88.10
2018-11-20T22:27:13.024Z,88.17
2018-11-20T22:29:59.764Z,88.08
2018-11-20T22:32:48.535Z,88.35
2018-11-20T22:35:38.235Z,88.65
2018-11-20T22:38:31.502Z,88.88
2018-11-20T22:41:38.273Z,88.99
2018-11-20T22:44:17.809Z,88.97
2018-11-20T22:47:18.935Z,88.94
2018-11-20T22:50:17.540Z,88.98
2018-11-20T22:53:07.047Z,88.93
2018-11-20T22:55:54.758Z,88.84
2018-11-20T22:58:43.437Z,88.95
2018-11-20T23:01:33.550Z,88.97
2018-11-20T23:04:22.781Z,88.87
2018-11-20T23:07:14.469Z,88.70
2018-11-20T23:09:45.023Z,88.55
2018-11-20T23:12:15.791Z,88.47
2018-11-20T23:14:45.418Z,88.15
2018-11-20T23:17:18.650Z,87.81
2018-11-20T23:19:48.416Z,87.83
2018-11-20T23:22:18.841Z,87.96
2018-11-20T23:24:48.465Z,88.36
2018-11-20T23:27:19.042Z,88.52
2018-11-20T23:29:49.517Z,88.02
2018-11-20T23:32:19.897Z,87.92
2018-11-20T23:34:49.460Z,88.37
2018-11-20T23:37:19.178Z,88.03
2018-11-20T23:39:48.751Z,88.27
2018-11-20T23:42:23.874Z,88.25
2018-11-20T23:44:50.102Z,88.40
2018-11-20T23:47:21.797Z,88.65
2018-11-20T23:49:51.417Z,87.77
2018-11-20T23:52:21.425Z,87.75
2018-11-20T23:54:51.969Z,87.88
2018-11-20T23:57:21.706Z,87.37
2018-11-20T23:59:52.074Z,87.46
